Time;durP1;ratioP1;P1;durP2;ratioP2;P2;SDS_P1;SDS_P2;PMS_P1;PMS_P2;Temp;Humidity;BMP_temperature;BMP_pressure;BME280_temperature;BME280_humidity;BME280_pressure;Samples;Min_cycle;Max_cycle;Signal;HPM_P1;HPM_P2
2022/05/20 00:00:40;;;;;;;28.27;13.98;;;16.00;99.90;;;;;;4969102;28;20142;-73
2022/05/20 00:03:06;;;;;;;23.58;13.10;;;15.80;99.90;;;;;;4969102;28;20027;-72
2022/05/20 00:05:33;;;;;;;21.50;12.98;;;15.80;99.90;;;;;;4969336;29;20094;-71
2022/05/20 00:07:59;;;;;;;30.70;14.57;;;15.80;99.90;;;;;;4968484;28;20047;-71
2022/05/20 00:10:25;;;;;;;22.45;12.27;;;15.60;99.90;;;;;;4969241;28;20027;-73
2022/05/20 00:12:51;;;;;;;20.60;12.77;;;15.60;99.90;;;;;;4969101;28;20026;-72
2022/05/20 00:15:21;;;;;;;20.35;11.18;;;15.40;99.90;;;;;;4968700;28;20031;-72
2022/05/20 00:17:47;;;;;;;24.10;11.73;;;15.40;99.90;;;;;;4969144;28;20039;-72
2022/05/20 00:20:15;;;;;;;18.92;10.75;;;15.50;99.90;;;;;;4968895;28;20146;-73
2022/05/20 00:22:42;;;;;;;31.65;12.45;;;15.40;99.90;;;;;;4968560;28;20027;-73
2022/05/20 00:27:53;;;;;;;22.65;10.27;;;15.40;99.90;;;;;;4968771;28;20038;-73
2022/05/20 00:30:18;;;;;;;21.70;11.18;;;15.50;99.90;;;;;;4968476;28;20031;-76
2022/05/20 00:32:44;;;;;;;24.15;11.48;;;15.50;99.90;;;;;;4968718;28;20058;-72
2022/05/20 00:35:11;;;;;;;17.00;9.32;;;15.50;99.90;;;;;;4968463;28;20558;-75
2022/05/20 00:37:37;;;;;;;15.10;9.93;;;15.60;99.90;;;;;;4968611;28;20110;-69
2022/05/20 00:40:05;;;;;;;26.27;9.90;;;15.60;99.90;;;;;;4968630;28;20651;-72
2022/05/20 00:42:30;;;;;;;25.33;10.50;;;15.60;99.90;;;;;;4968183;28;20027;-75
2022/05/20 00:44:56;;;;;;;18.13;10.23;;;15.50;99.90;;;;;;4968477;28;20033;-70
2022/05/20 00:47:21;;;;;;;24.05;9.80;;;15.50;99.90;;;;;;4968699;28;20085;-70
2022/05/20 00:49:52;;;;;;;22.17;10.70;;;15.50;99.90;;;;;;4968313;28;20136;-71
2022/05/20 00:52:22;;;;;;;20.52;10.05;;;15.50;99.90;;;;;;4968355;28;20035;-73
2022/05/20 00:54:51;;;;;;;15.93;8.27;;;15.30;99.90;;;;;;4968554;28;20038;-72
2022/05/20 00:57:23;;;;;;;12.35;7.60;;;15.30;99.90;;;;;;4967925;28;20031;-71
2022/05/20 00:59:55;;;;;;;14.18;7.22;;;15.20;99.90;;;;;;4968223;28;20039;-77
2022/05/20 01:02:22;;;;;;;12.45;6.53;;;15.20;99.90;;;;;;4968065;28;20095;-71
2022/05/20 01:04:49;;;;;;;15.73;5.85;;;15.10;99.90;;;;;;4967643;28;20035;-71
2022/05/20 01:07:18;;;;;;;9.15;5.75;;;15.00;99.90;;;;;;4968287;28;20031;-71
2022/05/20 01:09:44;;;;;;;8.45;5.25;;;14.90;99.90;;;;;;4967902;28;20435;-74
2022/05/20 01:12:10;;;;;;;10.63;6.25;;;14.90;99.90;;;;;;4950617;28;20036;-70
2022/05/20 01:14:36;;;;;;;10.13;5.85;;;14.80;99.90;;;;;;4968086;28;20102;-70
2022/05/20 01:17:02;;;;;;;8.70;5.78;;;14.80;99.90;;;;;;4967966;28;20160;-70
2022/05/20 01:19:36;;;;;;;11.63;6.13;;;14.70;99.90;;;;;;4967462;28;20046;-70
2022/05/20 01:22:05;;;;;;;8.17;4.90;;;14.70;99.90;;;;;;4967928;28;20045;-70
2022/05/20 01:24:30;;;;;;;9.27;5.53;;;14.60;99.90;;;;;;4967459;28;20053;-75
2022/05/20 01:26:56;;;;;;;11.20;6.15;;;14.60;99.90;;;;;;4950423;29;20467;-70
2022/05/20 01:29:22;;;;;;;10.38;4.45;;;14.60;99.90;;;;;;4967357;28;20063;-74
2022/05/20 01:31:49;;;;;;;12.85;5.10;;;14.50;99.90;;;;;;4967212;28;20032;-76
2022/05/20 01:34:14;;;;;;;11.93;5.55;;;14.50;99.90;;;;;;4967719;28;20066;-72
2022/05/20 01:36:40;;;;;;;9.38;4.70;;;14.50;99.90;;;;;;4950288;29;20027;-75
2022/05/20 01:39:05;;;;;;;9.43;4.43;;;14.40;99.90;;;;;;4967198;28;20042;-71
2022/05/20 01:42:04;;;;;;;7.82;4.38;;;14.40;99.90;;;;;;4967530;28;20035;-70
2022/05/20 01:45:12;;;;;;;9.00;4.63;;;14.40;99.90;;;;;;4966868;28;20043;-73
2022/05/20 01:47:40;;;;;;;8.48;4.05;;;14.50;99.90;;;;;;4926683;29;20055;-68
2022/05/20 01:50:21;;;;;;;6.15;4.07;;;14.40;99.90;;;;;;4961163;28;20063;-73
2022/05/20 01:53:02;;;;;;;6.65;4.25;;;14.40;99.90;;;;;;4967018;28;20035;-72
2022/05/20 01:55:36;;;;;;;5.68;3.03;;;14.40;99.90;;;;;;4967192;28;20024;-77
2022/05/20 01:58:16;;;;;;;8.55;3.72;;;14.40;99.90;;;;;;4967048;28;20126;-76
2022/05/20 02:00:45;;;;;;;5.10;3.22;;;14.50;99.90;;;;;;4950068;29;20034;-70
2022/05/20 02:03:15;;;;;;;3.65;2.95;;;14.40;99.90;;;;;;4967094;28;20062;-74
2022/05/20 02:05:40;;;;;;;6.00;2.97;;;14.30;99.90;;;;;;4966964;28;20468;-74
2022/05/20 02:08:11;;;;;;;5.28;3.30;;;14.30;99.90;;;;;;4967055;28;20046;-73
2022/05/20 02:10:47;;;;;;;6.43;2.85;;;14.30;99.90;;;;;;4967266;28;20129;-72
2022/05/20 02:13:16;;;;;;;4.78;3.15;;;14.20;99.90;;;;;;4966845;28;20024;-72
2022/05/20 02:15:51;;;;;;;10.52;4.00;;;14.20;99.90;;;;;;4966516;28;20035;-72
2022/05/20 02:18:22;;;;;;;5.80;3.50;;;14.20;99.90;;;;;;4966845;28;20034;-72
2022/05/20 02:20:53;;;;;;;7.25;4.07;;;14.10;99.90;;;;;;4966576;28;20032;-74
2022/05/20 02:23:22;;;;;;;7.55;3.65;;;14.10;99.90;;;;;;4966914;28;20024;-72
2022/05/20 02:25:55;;;;;;;7.15;3.92;;;14.00;99.90;;;;;;4967018;28;20478;-71
2022/05/20 02:28:55;;;;;;;7.93;4.18;;;14.10;99.90;;;;;;4966640;28;20023;-70
2022/05/20 02:31:29;;;;;;;9.75;4.05;;;14.00;99.90;;;;;;4933941;28;20039;-70
2022/05/20 02:33:55;;;;;;;5.63;3.35;;;14.10;99.90;;;;;;4966583;28;20050;-72
2022/05/20 02:36:28;;;;;;;4.82;3.22;;;14.10;99.90;;;;;;4966350;28;20031;-74
2022/05/20 02:38:54;;;;;;;9.60;2.75;;;14.00;99.90;;;;;;4966823;28;20485;-71
2022/05/20 02:41:19;;;;;;;6.45;3.00;;;14.00;99.90;;;;;;4966505;29;20037;-72
2022/05/20 02:43:45;;;;;;;4.82;2.85;;;14.00;99.90;;;;;;4966399;28;20047;-70
2022/05/20 02:46:13;;;;;;;5.90;2.88;;;13.90;99.90;;;;;;4967013;28;20475;-70
2022/05/20 02:48:39;;;;;;;5.47;3.08;;;13.90;99.90;;;;;;4966457;28;20134;-73
2022/05/20 02:51:04;;;;;;;6.70;2.40;;;14.00;99.90;;;;;;4965149;28;20074;-74
2022/05/20 02:53:30;;;;;;;9.60;3.70;;;13.90;99.90;;;;;;4966758;28;20038;-73
2022/05/20 02:55:56;;;;;;;5.43;2.42;;;14.00;99.90;;;;;;4966253;28;20118;-70
2022/05/20 03:04:10;;;;;;;3.25;2.15;;;13.90;99.90;;;;;;4897359;29;20039;-74
2022/05/20 03:06:37;;;;;;;4.45;2.53;;;14.00;99.90;;;;;;4966963;28;20035;-72
2022/05/20 03:09:04;;;;;;;3.95;2.58;;;14.00;99.90;;;;;;4966351;28;20095;-71
2022/05/20 03:11:29;;;;;;;4.22;2.53;;;13.90;99.90;;;;;;4966080;28;20588;-69
2022/05/20 03:13:55;;;;;;;3.65;1.95;;;13.80;99.90;;;;;;4966534;28;20035;-69
2022/05/20 03:16:20;;;;;;;4.15;2.40;;;13.80;99.90;;;;;;4966594;28;20028;-71
2022/05/20 03:18:46;;;;;;;3.53;2.30;;;13.80;99.90;;;;;;4966047;28;20032;-69
2022/05/20 03:21:11;;;;;;;6.20;3.05;;;13.80;99.90;;;;;;4966495;28;20027;-69
2022/05/20 03:23:37;;;;;;;11.18;3.15;;;13.80;99.90;;;;;;4966365;29;20046;-69
2022/05/20 03:26:04;;;;;;;3.97;2.65;;;13.80;99.90;;;;;;4966178;28;20039;-70
2022/05/20 03:28:30;;;;;;;9.25;2.97;;;13.80;99.90;;;;;;4969916;28;20069;-69
2022/05/20 03:31:03;;;;;;;5.30;2.92;;;13.70;99.90;;;;;;4969391;28;20047;-70
2022/05/20 03:33:28;;;;;;;4.15;2.58;;;13.70;99.90;;;;;;4969534;28;20043;-69
2022/05/20 03:35:54;;;;;;;7.57;2.85;;;13.70;99.90;;;;;;4969760;28;20027;-69
2022/05/20 03:38:20;;;;;;;4.43;2.70;;;13.70;99.90;;;;;;4952202;28;20024;-70
2022/05/20 03:40:46;;;;;;;14.73;3.38;;;13.70;99.90;;;;;;4969866;29;20043;-69
2022/05/20 03:43:12;;;;;;;7.28;2.85;;;13.70;99.90;;;;;;4969770;28;20059;-69
2022/05/20 03:45:41;;;;;;;5.18;2.80;;;13.70;99.90;;;;;;4969400;28;20031;-68
2022/05/20 03:48:07;;;;;;;4.65;2.50;;;13.70;99.90;;;;;;4969341;28;20039;-69
2022/05/20 03:50:32;;;;;;;3.50;2.53;;;13.70;99.90;;;;;;4969201;28;20084;-69
2022/05/20 03:52:59;;;;;;;4.30;2.88;;;13.70;99.90;;;;;;4969327;28;20031;-69
2022/05/20 03:55:25;;;;;;;4.70;2.72;;;13.70;99.90;;;;;;4969217;28;20030;-69
2022/05/20 03:57:51;;;;;;;4.70;2.70;;;13.70;99.90;;;;;;4968899;28;20034;-70
2022/05/20 04:00:17;;;;;;;5.63;2.88;;;13.70;99.90;;;;;;4970089;28;20027;-71
2022/05/20 04:02:43;;;;;;;5.95;3.05;;;13.70;99.90;;;;;;4955594;29;20031;-71
2022/05/20 04:05:09;;;;;;;4.30;2.60;;;13.70;99.90;;;;;;4968957;28;20034;-70
2022/05/20 04:07:36;;;;;;;7.10;3.33;;;13.70;99.90;;;;;;4969131;28;20120;-70
2022/05/20 04:10:02;;;;;;;5.25;3.35;;;13.70;99.90;;;;;;4969172;28;20058;-70
2022/05/20 04:12:38;;;;;;;6.40;3.75;;;13.70;99.90;;;;;;4968932;28;20047;-69
2022/05/20 04:15:06;;;;;;;8.77;3.88;;;13.70;99.90;;;;;;4969206;28;20027;-71
2022/05/20 04:17:31;;;;;;;5.13;3.30;;;13.60;99.90;;;;;;4968555;28;20027;-71
2022/05/20 04:19:58;;;;;;;7.15;3.53;;;13.60;99.90;;;;;;4968856;28;20027;-71
2022/05/20 04:22:27;;;;;;;7.07;4.00;;;13.60;99.90;;;;;;4962394;28;20036;-71
2022/05/20 04:24:53;;;;;;;6.53;3.70;;;13.60;99.90;;;;;;4937608;29;20027;-71
2022/05/20 04:27:19;;;;;;;5.68;3.20;;;13.60;99.90;;;;;;4968331;28;20042;-70
2022/05/20 04:29:45;;;;;;;4.85;3.22;;;13.60;99.90;;;;;;4964167;28;20081;-71
2022/05/20 04:32:10;;;;;;;10.10;3.53;;;13.60;99.90;;;;;;4948975;29;20056;-70
2022/05/20 04:34:37;;;;;;;7.22;4.10;;;13.60;99.90;;;;;;4959842;29;20035;-70
2022/05/20 04:37:03;;;;;;;6.30;3.78;;;13.60;99.90;;;;;;4961518;28;20086;-69
2022/05/20 04:39:28;;;;;;;7.38;3.35;;;13.60;99.90;;;;;;4964376;28;20041;-70
2022/05/20 04:47:26;;;;;;;4.30;2.72;;;13.60;99.90;;;;;;4963486;28;19933;-72
2022/05/20 04:49:53;;;;;;;5.80;4.05;;;13.60;99.90;;;;;;4968038;28;20035;-70
2022/05/20 04:52:19;;;;;;;6.22;3.38;;;13.60;99.90;;;;;;4967172;28;20476;-72
2022/05/20 04:54:50;;;;;;;6.35;3.15;;;13.60;99.90;;;;;;4969731;28;20034;-70
2022/05/20 04:57:25;;;;;;;5.13;2.75;;;13.50;99.90;;;;;;4970769;28;20031;-70
2022/05/20 04:59:53;;;;;;;8.38;4.35;;;13.50;99.90;;;;;;4963724;28;20027;-70
2022/05/20 05:02:20;;;;;;;4.50;2.72;;;13.50;99.90;;;;;;4965459;28;20031;-69
2022/05/20 05:04:47;;;;;;;8.32;3.00;;;13.60;99.90;;;;;;4959355;28;20028;-70
2022/05/20 05:07:12;;;;;;;5.35;3.03;;;13.60;99.90;;;;;;4959636;28;20034;-72
2022/05/20 05:09:39;;;;;;;6.22;3.22;;;13.70;99.90;;;;;;4954743;28;20082;-69
2022/05/20 05:12:06;;;;;;;6.53;2.95;;;13.60;99.90;;;;;;4959132;29;20039;-68
2022/05/20 05:14:40;;;;;;;4.82;2.83;;;13.70;99.90;;;;;;4967647;28;20045;-69
2022/05/20 05:17:10;;;;;;;5.80;3.15;;;13.70;99.90;;;;;;4948645;29;20028;-70
2022/05/20 05:19:37;;;;;;;6.35;2.53;;;13.70;99.90;;;;;;4963645;28;20046;-69
2022/05/20 05:22:07;;;;;;;5.07;3.03;;;13.80;99.90;;;;;;4967411;28;20031;-69
2022/05/20 05:24:35;;;;;;;7.53;3.17;;;13.80;99.90;;;;;;4967013;28;20035;-70
2022/05/20 05:27:01;;;;;;;13.50;2.58;;;13.90;99.90;;;;;;4963625;28;20039;-68
2022/05/20 05:29:26;;;;;;;12.05;3.13;;;13.90;99.90;;;;;;4965826;28;20154;-69
2022/05/20 05:31:52;;;;;;;3.53;2.58;;;14.00;99.90;;;;;;4961854;28;20037;-69
2022/05/20 05:34:18;;;;;;;6.82;2.85;;;14.00;99.90;;;;;;4965483;28;20114;-71
2022/05/20 05:36:44;;;;;;;10.50;3.22;;;14.10;99.90;;;;;;4961365;28;20539;-71
2022/05/20 05:39:09;;;;;;;5.05;2.92;;;14.10;99.90;;;;;;4967442;29;20066;-69
2022/05/20 05:41:35;;;;;;;6.32;2.80;;;14.10;99.90;;;;;;4966656;28;20031;-69
2022/05/20 05:44:03;;;;;;;7.90;2.47;;;14.10;99.90;;;;;;4962483;28;20027;-69
2022/05/20 05:46:30;;;;;;;9.02;2.75;;;14.20;99.90;;;;;;4955444;29;20031;-69
2022/05/20 05:48:57;;;;;;;11.52;3.45;;;14.20;99.90;;;;;;4964926;28;20058;-72
2022/05/20 05:51:24;;;;;;;5.40;3.00;;;14.20;99.90;;;;;;4965358;28;20054;-70
2022/05/20 05:53:50;;;;;;;4.10;2.65;;;14.30;99.90;;;;;;4966330;28;20045;-70
2022/05/20 05:56:15;;;;;;;4.63;2.65;;;14.30;99.90;;;;;;4966617;28;20039;-73
2022/05/20 05:58:41;;;;;;;5.93;3.00;;;14.20;99.90;;;;;;4967037;28;20039;-72
2022/05/20 06:01:07;;;;;;;3.78;2.35;;;14.20;99.90;;;;;;4967080;28;20536;-71
2022/05/20 06:03:33;;;;;;;9.70;2.75;;;14.20;99.90;;;;;;4946108;29;20058;-69
2022/05/20 06:05:58;;;;;;;9.15;3.60;;;14.20;99.90;;;;;;4954297;28;20082;-72
2022/05/20 06:08:24;;;;;;;4.95;2.58;;;14.30;99.90;;;;;;4961506;28;20111;-69
2022/05/20 06:10:50;;;;;;;5.60;2.70;;;14.40;99.90;;;;;;4962585;28;20039;-71
2022/05/20 06:13:27;;;;;;;3.83;2.40;;;14.40;99.90;;;;;;4967205;28;20132;-70
2022/05/20 06:15:56;;;;;;;5.25;2.80;;;14.50;99.90;;;;;;4966949;29;20046;-74
2022/05/20 06:18:22;;;;;;;4.68;2.58;;;14.50;99.90;;;;;;4966593;28;20090;-72
2022/05/20 06:20:49;;;;;;;4.78;2.65;;;14.40;99.90;;;;;;4967062;28;20082;-71
2022/05/20 06:23:15;;;;;;;4.70;2.60;;;14.50;99.90;;;;;;4966692;28;20053;-71
2022/05/20 06:25:41;;;;;;;6.07;2.33;;;14.50;99.90;;;;;;4966791;28;20034;-69
2022/05/20 06:28:13;;;;;;;4.80;2.38;;;14.60;99.90;;;;;;4961451;28;20027;-69
2022/05/20 06:30:40;;;;;;;6.25;1.73;;;14.60;99.90;;;;;;4952198;28;20122;-72
2022/05/20 06:33:06;;;;;;;7.15;2.03;;;14.70;99.90;;;;;;4958122;28;20043;-69
2022/05/20 06:41:02;;;;;;;5.15;1.75;;;15.00;99.90;;;;;;4965979;28;20090;-71
2022/05/20 06:43:28;;;;;;;5.35;1.90;;;15.10;99.90;;;;;;4965694;28;20066;-70
2022/05/20 06:45:57;;;;;;;6.15;2.08;;;15.10;99.90;;;;;;4957703;28;20024;-70
2022/05/20 06:48:25;;;;;;;4.65;2.15;;;15.00;99.90;;;;;;4949764;29;20042;-67
2022/05/20 06:50:51;;;;;;;4.70;2.30;;;14.90;99.90;;;;;;4962434;28;20055;-71
2022/05/20 06:53:16;;;;;;;3.70;1.88;;;14.90;99.90;;;;;;4965723;28;20395;-69
2022/05/20 06:55:42;;;;;;;4.70;1.92;;;14.90;99.90;;;;;;4964048;28;20024;-70
2022/05/20 06:58:08;;;;;;;7.43;1.88;;;15.00;99.90;;;;;;4965055;28;20027;-69
2022/05/20 07:00:34;;;;;;;9.77;1.55;;;15.10;99.90;;;;;;4962301;28;20034;-69
2022/05/20 07:03:01;;;;;;;7.18;1.88;;;15.10;99.90;;;;;;4968170;28;20027;-70
2022/05/20 07:05:27;;;;;;;2.13;1.50;;;15.40;99.90;;;;;;4968528;29;20543;-70
2022/05/20 07:07:53;;;;;;;3.63;1.83;;;15.60;99.90;;;;;;4955542;28;20027;-69
2022/05/20 07:10:20;;;;;;;4.10;1.70;;;15.70;99.90;;;;;;4964675;28;20488;-71
2022/05/20 07:12:45;;;;;;;3.67;1.92;;;15.70;99.90;;;;;;4969218;29;20023;-70
2022/05/20 07:15:12;;;;;;;4.00;2.13;;;15.70;99.90;;;;;;4968479;28;20033;-71
2022/05/20 07:17:39;;;;;;;3.65;1.50;;;15.70;99.90;;;;;;4951429;29;20035;-70
2022/05/20 07:20:06;;;;;;;4.38;1.70;;;15.60;99.90;;;;;;4967843;28;20031;-70
2022/05/20 07:22:41;;;;;;;5.05;2.15;;;15.60;99.90;;;;;;4961486;29;20027;-71
2022/05/20 07:25:07;;;;;;;7.10;2.45;;;15.60;99.90;;;;;;4969078;28;20038;-70
2022/05/20 07:27:32;;;;;;;3.50;2.03;;;15.50;99.90;;;;;;4969640;29;20063;-70
2022/05/20 07:29:58;;;;;;;6.43;1.67;;;15.70;99.90;;;;;;4969764;28;20182;-70
2022/05/20 07:32:24;;;;;;;4.25;2.05;;;15.80;99.90;;;;;;4969051;28;20055;-72
2022/05/20 07:34:49;;;;;;;3.70;2.38;;;15.90;99.90;;;;;;4969909;28;20055;-71
2022/05/20 07:37:16;;;;;;;3.97;1.75;;;16.10;99.90;;;;;;4963794;28;20055;-70
2022/05/20 07:39:43;;;;;;;13.05;1.65;;;16.20;99.90;;;;;;4969660;28;20062;-71
2022/05/20 07:42:09;;;;;;;3.13;1.40;;;16.30;99.90;;;;;;4961260;29;20043;-70
2022/05/20 07:44:36;;;;;;;2.75;1.52;;;16.50;99.90;;;;;;4961803;28;20027;-72
2022/05/20 07:47:03;;;;;;;3.22;1.90;;;16.50;99.90;;;;;;4958448;28;20055;-70
2022/05/20 07:49:28;;;;;;;7.28;2.10;;;16.50;99.90;;;;;;4968835;28;20071;-72
2022/05/20 07:51:57;;;;;;;5.15;2.15;;;16.50;99.90;;;;;;4968549;28;20035;-72
2022/05/20 07:54:25;;;;;;;4.13;2.45;;;16.50;99.90;;;;;;4967315;28;20111;-71
2022/05/20 07:57:04;;;;;;;3.17;2.03;;;16.50;99.90;;;;;;4966304;28;20054;-73
2022/05/20 07:59:37;;;;;;;3.95;2.10;;;16.40;99.90;;;;;;4967554;28;20031;-70
2022/05/20 08:02:03;;;;;;;7.18;2.47;;;16.30;99.90;;;;;;4967558;28;20054;-70
2022/05/20 08:07:27;;;;;;;8.68;3.97;;;16.30;99.90;;;;;;4965196;28;20078;-71
2022/05/20 08:09:53;;;;;;;6.93;3.85;;;16.30;99.90;;;;;;4967376;28;20043;-70
2022/05/20 08:12:19;;;;;;;8.90;3.65;;;16.30;99.90;;;;;;4963227;28;20499;-70
2022/05/20 08:14:45;;;;;;;4.72;3.03;;;16.30;99.90;;;;;;4983005;28;20038;-70
2022/05/20 08:17:10;;;;;;;10.38;3.70;;;16.20;99.90;;;;;;4971911;28;20031;-70
2022/05/20 08:19:37;;;;;;;6.47;3.40;;;16.40;99.90;;;;;;4958922;28;20034;-70
2022/05/20 08:22:03;;;;;;;7.55;2.95;;;16.50;99.90;;;;;;4966849;28;20044;-71
2022/05/20 08:24:32;;;;;;;6.68;3.85;;;16.70;99.90;;;;;;4968477;28;20031;-70
2022/05/20 08:26:58;;;;;;;7.25;3.60;;;16.90;99.90;;;;;;4968421;28;20024;-69
2022/05/20 08:29:24;;;;;;;8.93;3.17;;;17.00;99.90;;;;;;4969433;28;20039;-70
2022/05/20 08:31:50;;;;;;;9.73;3.65;;;17.10;99.90;;;;;;4967953;28;20097;-71
2022/05/20 08:34:16;;;;;;;6.78;3.70;;;17.20;99.90;;;;;;4959449;28;20027;-71
2022/05/20 08:36:43;;;;;;;7.15;4.13;;;17.30;99.90;;;;;;4950645;29;20042;-71
2022/05/20 08:39:12;;;;;;;5.38;2.60;;;17.40;99.90;;;;;;4968216;28;20409;-70
2022/05/20 08:41:42;;;;;;;6.07;3.10;;;17.40;99.90;;;;;;4968071;28;20028;-70
2022/05/20 08:44:12;;;;;;;5.75;3.67;;;17.50;99.90;;;;;;4957944;28;20087;-70
2022/05/20 08:46:40;;;;;;;5.05;3.08;;;17.50;99.90;;;;;;4952310;29;20035;-70
2022/05/20 08:49:10;;;;;;;8.00;3.63;;;17.60;99.90;;;;;;4955956;29;20050;-71
2022/05/20 08:51:39;;;;;;;6.47;3.53;;;17.90;99.90;;;;;;4949239;29;20036;-70
2022/05/20 08:54:05;;;;;;;8.63;4.60;;;18.10;99.90;;;;;;4964579;29;20372;-68
2022/05/20 08:56:31;;;;;;;4.97;3.47;;;18.20;99.90;;;;;;4967996;28;20059;-72
2022/05/20 08:59:03;;;;;;;4.95;3.15;;;18.40;99.90;;;;;;4962905;28;20055;-71
2022/05/20 09:01:42;;;;;;;6.53;3.58;;;18.30;99.90;;;;;;4967859;28;20082;-68
2022/05/20 09:04:10;;;;;;;4.38;3.33;;;18.40;99.90;;;;;;4967271;28;20078;-69
2022/05/20 09:06:56;;;;;;;7.65;3.67;;;18.40;99.90;;;;;;4964644;28;20768;-73
2022/05/20 09:09:21;;;;;;;7.68;4.15;;;18.50;99.90;;;;;;4964584;28;20035;-68
2022/05/20 09:11:54;;;;;;;8.80;4.05;;;18.70;99.90;;;;;;4967394;28;20062;-71
2022/05/20 09:17:11;;;;;;;8.40;3.10;;;18.80;99.90;;;;;;4965809;28;20073;-71
2022/05/20 09:19:38;;;;;;;6.28;3.58;;;18.80;99.90;;;;;;4966269;28;20035;-69
2022/05/20 09:22:15;;;;;;;6.65;3.47;;;18.70;99.90;;;;;;4966305;28;20042;-69
2022/05/20 09:24:43;;;;;;;3.90;2.58;;;18.70;99.90;;;;;;4966851;28;20031;-70
2022/05/20 09:27:21;;;;;;;6.38;2.92;;;18.80;99.90;;;;;;4969654;28;20023;-70
2022/05/20 09:29:57;;;;;;;13.13;3.33;;;18.80;99.90;;;;;;4965716;28;20050;-70
2022/05/20 09:32:36;;;;;;;8.90;2.78;;;18.80;99.90;;;;;;4966636;28;20082;-72
2022/05/20 09:35:06;;;;;;;9.52;4.55;;;18.80;99.90;;;;;;4965727;28;20019;-69
2022/05/20 09:37:34;;;;;;;8.98;4.22;;;18.90;99.90;;;;;;4966785;28;20034;-68
2022/05/20 09:40:24;;;;;;;9.35;4.53;;;18.80;99.90;;;;;;4966335;28;20532;-69
2022/05/20 09:43:04;;;;;;;14.30;4.78;;;18.80;99.90;;;;;;4959782;28;20420;-70
2022/05/20 09:45:36;;;;;;;7.65;4.25;;;18.90;99.90;;;;;;4963017;28;20031;-72
2022/05/20 09:48:02;;;;;;;9.63;5.78;;;19.00;99.90;;;;;;4965410;28;20031;-70
2022/05/20 09:50:34;;;;;;;12.20;6.00;;;19.00;99.90;;;;;;4948451;28;20043;-69
2022/05/20 09:53:23;;;;;;;11.32;6.82;;;19.00;99.90;;;;;;4965757;28;20057;-70
2022/05/20 09:55:49;;;;;;;9.10;6.20;;;18.90;99.90;;;;;;4967359;28;20031;-69
2022/05/20 09:58:30;;;;;;;8.85;5.07;;;18.90;99.90;;;;;;4967157;28;20027;-71
2022/05/20 10:01:02;;;;;;;8.85;4.90;;;18.80;99.90;;;;;;4965976;28;20036;-71
2022/05/20 10:03:33;;;;;;;16.17;4.25;;;19.00;99.90;;;;;;4963393;28;20031;-71
2022/05/20 10:06:04;;;;;;;8.23;4.90;;;19.00;99.90;;;;;;4947473;29;20028;-70
2022/05/20 10:08:43;;;;;;;9.10;4.68;;;19.20;99.90;;;;;;4951300;28;20028;-72
2022/05/20 10:11:27;;;;;;;7.80;4.20;;;19.20;99.90;;;;;;4956723;29;20039;-70
2022/05/20 10:14:01;;;;;;;7.78;4.00;;;19.40;99.90;;;;;;4965471;28;20086;-71
2022/05/20 10:16:46;;;;;;;8.93;3.70;;;19.40;99.90;;;;;;4961846;28;20031;-69
2022/05/20 10:19:52;;;;;;;7.82;4.35;;;19.40;99.90;;;;;;4949553;28;20075;-71
2022/05/20 10:22:33;;;;;;;7.05;3.92;;;19.50;99.90;;;;;;4952477;28;20047;-71
2022/05/20 10:25:08;;;;;;;8.48;4.30;;;19.60;99.90;;;;;;4966310;28;20035;-70
2022/05/20 10:28:13;;;;;;;6.85;4.50;;;19.70;99.90;;;;;;4960051;28;20031;-71
2022/05/20 10:33:38;;;;;;;4.13;2.17;;;19.80;99.90;;;;;;4964139;28;20071;-72
2022/05/20 10:36:19;;;;;;;4.63;2.40;;;19.80;99.90;;;;;;4945961;29;20116;-71
2022/05/20 10:39:07;;;;;;;3.65;2.13;;;20.00;99.90;;;;;;4947136;29;20060;-72
2022/05/20 10:42:10;;;;;;;4.15;2.42;;;20.00;99.90;;;;;;4950353;28;20567;-72
2022/05/20 10:51:07;;;;;;;5.88;2.70;;;20.10;99.90;;;;;;4969065;28;20054;-70
2022/05/20 10:53:54;;;;;;;12.93;3.22;;;20.20;99.90;;;;;;4947411;28;20039;-72
2022/05/20 10:56:50;;;;;;;9.52;3.63;;;20.20;99.90;;;;;;4964154;28;20038;-73
2022/05/20 10:59:51;;;;;;;10.88;3.58;;;20.30;99.90;;;;;;4961529;28;20098;-72
2022/05/20 11:02:48;;;;;;;4.50;2.30;;;20.40;99.90;;;;;;4963495;28;20024;-73
2022/05/20 11:05:33;;;;;;;7.55;3.53;;;20.60;99.90;;;;;;4963218;28;20031;-73
2022/05/20 11:08:06;;;;;;;9.27;3.45;;;20.70;99.90;;;;;;4963716;28;20091;-72
2022/05/20 11:10:56;;;;;;;4.25;2.95;;;20.80;99.90;;;;;;4965220;28;20260;-71
2022/05/20 11:13:31;;;;;;;6.65;3.25;;;20.90;99.90;;;;;;4965949;28;20556;-71
2022/05/20 11:16:22;;;;;;;4.93;2.80;;;20.90;99.90;;;;;;4963257;28;20043;-72
2022/05/20 11:19:00;;;;;;;6.82;2.72;;;20.90;99.90;;;;;;4946291;29;20039;-73
2022/05/20 11:21:44;;;;;;;3.60;2.17;;;21.00;99.90;;;;;;4963605;28;20031;-72
2022/05/20 11:24:15;;;;;;;5.10;3.17;;;21.00;99.90;;;;;;4965066;29;20039;-70
2022/05/20 11:27:11;;;;;;;3.92;2.70;;;20.90;99.90;;;;;;4966878;28;20043;-72
2022/05/20 11:30:10;;;;;;;7.40;3.03;;;20.80;99.90;;;;;;4955215;28;20067;-73
2022/05/20 11:32:45;;;;;;;4.85;2.13;;;20.80;99.90;;;;;;4964226;28;20055;-71
2022/05/20 11:35:25;;;;;;;7.28;3.45;;;20.80;99.90;;;;;;4964770;28;20106;-72
2022/05/20 11:38:19;;;;;;;8.63;3.00;;;20.80;99.90;;;;;;4959536;28;20027;-73
2022/05/20 11:41:04;;;;;;;7.27;3.23;;;20.80;99.90;;;;;;4958337;28;20031;-74
2022/05/20 11:43:48;;;;;;;9.80;4.07;;;20.70;99.90;;;;;;4956007;28;20027;-74
2022/05/20 11:46:27;;;;;;;7.60;2.97;;;20.70;99.90;;;;;;4959232;28;20032;-74
2022/05/20 11:49:15;;;;;;;8.38;3.30;;;20.70;99.90;;;;;;4947304;29;20138;-71
2022/05/20 11:51:58;;;;;;;7.13;3.38;;;20.70;99.90;;;;;;4949387;29;20028;-71
2022/05/20 11:54:31;;;;;;;6.80;3.08;;;20.70;99.90;;;;;;4968771;28;20027;-73
2022/05/20 11:57:11;;;;;;;10.52;3.40;;;20.80;99.90;;;;;;4951529;29;20443;-71
2022/05/20 11:59:44;;;;;;;6.97;3.55;;;21.00;99.90;;;;;;4967271;28;20043;-70
2022/05/20 12:02:18;;;;;;;8.52;3.35;;;21.20;99.90;;;;;;4985912;28;20109;-72
2022/05/20 12:04:48;;;;;;;11.90;4.00;;;21.40;99.90;;;;;;4973239;28;20027;-73
2022/05/20 12:07:25;;;;;;;5.00;3.50;;;21.40;99.90;;;;;;4964638;28;20083;-71
2022/05/20 12:09:57;;;;;;;8.05;3.92;;;21.30;99.90;;;;;;4968226;28;20165;-74
2022/05/20 12:12:29;;;;;;;10.23;3.20;;;21.40;99.90;;;;;;4968118;28;20046;-72
2022/05/20 12:15:01;;;;;;;9.02;3.85;;;21.40;99.90;;;;;;4968365;28;20392;-72
2022/05/20 12:17:34;;;;;;;5.40;3.03;;;21.50;99.90;;;;;;4968458;28;20028;-73
2022/05/20 12:25:56;;;;;;;5.55;3.25;;;22.00;99.90;;;;;;4947990;29;20040;-72
2022/05/20 12:28:21;;;;;;;7.25;3.53;;;22.20;99.90;;;;;;4953093;28;20042;-71
2022/05/20 12:31:09;;;;;;;7.03;3.40;;;22.30;99.90;;;;;;4967179;28;20047;-73
2022/05/20 12:33:53;;;;;;;6.78;3.63;;;22.40;99.90;;;;;;4964665;28;20051;-69
2022/05/20 12:36:27;;;;;;;6.13;3.50;;;22.60;99.90;;;;;;4967931;28;20031;-70
2022/05/20 12:39:13;;;;;;;4.40;2.83;;;22.60;99.90;;;;;;4950070;28;20579;-73
2022/05/20 12:41:45;;;;;;;4.85;2.72;;;22.70;99.90;;;;;;4966709;28;20099;-72
2022/05/20 12:44:16;;;;;;;7.15;2.75;;;22.90;99.90;;;;;;4950682;29;20023;-69
2022/05/20 12:47:04;;;;;;;6.65;3.55;;;23.20;99.90;;;;;;4983074;28;20030;-71
2022/05/20 12:49:36;;;;;;;4.93;2.92;;;23.50;99.90;;;;;;4967007;28;20062;-72
2022/05/20 12:52:24;;;;;;;6.03;3.15;;;23.60;99.90;;;;;;4975421;28;20028;-73
2022/05/20 12:54:57;;;;;;;5.20;2.58;;;23.80;99.90;;;;;;4967430;28;20101;-72
2022/05/20 12:57:27;;;;;;;3.28;2.25;;;23.90;99.90;;;;;;4967473;28;20086;-73
2022/05/20 13:00:03;;;;;;;5.53;2.55;;;24.10;99.90;;;;;;4966766;28;20038;-70
2022/05/20 13:02:38;;;;;;;4.00;2.33;;;24.30;99.90;;;;;;4967086;28;20035;-72
2022/05/20 13:05:27;;;;;;;8.18;3.17;;;24.40;99.90;;;;;;4967149;28;20488;-71
2022/05/20 13:07:54;;;;;;;4.82;2.78;;;24.50;99.90;;;;;;4966909;28;20063;-68
2022/05/20 13:10:34;;;;;;;4.15;2.13;;;24.50;99.90;;;;;;4967120;28;20067;-73
2022/05/20 13:13:28;;;;;;;4.05;2.20;;;24.70;99.90;;;;;;4966954;28;20027;-72
2022/05/20 13:16:00;;;;;;;3.63;2.50;;;24.90;99.90;;;;;;4966189;28;20095;-72
2022/05/20 13:18:30;;;;;;;3.33;2.25;;;25.00;99.90;;;;;;4965875;28;20039;-74
2022/05/20 13:21:03;;;;;;;3.85;2.25;;;24.90;99.90;;;;;;4966112;28;20610;-70
2022/05/20 13:23:50;;;;;;;2.63;1.83;;;25.10;99.90;;;;;;4966819;28;20499;-69
2022/05/20 13:26:28;;;;;;;4.82;2.35;;;25.30;99.90;;;;;;4960284;28;20087;-70
2022/05/20 13:29:19;;;;;;;6.90;2.55;;;25.60;99.90;;;;;;4965403;28;20071;-69
2022/05/20 13:31:45;;;;;;;3.08;1.92;;;25.90;99.90;;;;;;4955748;28;20033;-73
2022/05/20 13:34:12;;;;;;;3.92;1.70;;;25.90;99.90;;;;;;4967598;28;22787;-71
2022/05/20 13:36:42;;;;;;;3.28;1.55;;;26.00;99.90;;;;;;4966636;28;20417;-73
2022/05/20 13:39:14;;;;;;;3.55;1.83;;;26.20;99.90;;;;;;4948936;28;20027;-72
2022/05/20 13:41:40;;;;;;;5.40;1.88;;;26.30;99.90;;;;;;4958731;28;20031;-71
2022/05/20 13:44:07;;;;;;;2.67;1.58;;;26.50;99.90;;;;;;4965211;28;20039;-73
2022/05/20 13:49:23;;;;;;;5.00;1.95;;;27.00;99.90;;;;;;4959381;28;20116;-71